Paranavai, Brazil
Current Conditions -  °F | °C
As of 6:00 PM on Saturday 20 Dec 2014 (Local Time) from SBMG Reporting Station
Few Clouds Few Clouds  
Wind Chill: 90°   Ceiling: Unl
Heat Index: 95°   Visibility: 6mi
Dew Point: 70°   Wind: 12mph
Humidity: 52%   Direction: 360°N
Pressure: 29.71"   Gusts: NA
Location:  23.07°S, 52.47°W
Report Text: SBMG 202000Z 36010KT 9999 FEW035 32/21 Q1006
Loading
Personal Weather Stations






























Interactive Weather Map New forecast layout! Learn more

10-Day Weather Forecast

Advertisements
Track Severe Weather on mobile